Etusivu
METAR-TAF:

METAR-TAF

Lentoasemat :

Sandane, Norja

Leveyspiiri: 61-50N, Pituuspiiri: 006-07E, korkeus merenpinnasta: 6 m

Tämänhetkinen sää

Tämä raportti tehtiin 15 minuuttia sitten, kello 12.20 UTC
Tuuli 3 kn lounaasta, vaihdellen etelän ja lännen välillä
Lämpötila 2°C
Kosteus 93%
Ilmanpaine 1017 hPa
Näkyvyys: 0600 m
sumua

METAR: ENSD 191220Z 22003KT 190V270 0600 FG VV002 02/01 Q1017 RMK WIND 1138FT 09004KT

Aika: 14:35 (12:35 UTC)


TAF: puuttuu

Säähavainnot ja -ennusteet yli 4000 lentoasemalta (METAR- ja TAF-raportit).

Käytössä olevat sääasemat on merkitty karttaan keltaisilla ja punaisilla pisteillä.

Aseta hiiri pisteen päälle nähdäksesi sääaseman nimen.

Klikkaa sitten nähdäksesi säähavainnot ja -ennusteet.

Kartan vaihtaminen: klikkaa mustalla rastilla varustettuja vihreitä pisteitä, niin voit zoomata sisään; viivalla varustettua vihreää pistettä, niin voit zoomata ulos tai vihreitä nuolia, niin pääset viereisille kartoille.


METAR-TAF: